Time;durP1;ratioP1;P1;durP2;ratioP2;P2;SDS_P1;SDS_P2;PMS_P1;PMS_P2;Temp;Humidity;BMP_temperature;BMP_pressure;BME280_temperature;BME280_humidity;BME280_pressure;Samples;Min_cycle;Max_cycle;Signal;HPM_P1;HPM_P2
2021/11/12 00:04:19;;;;;;;2.92;1.70;;;9.20;90.80;;;;;;5082777;28;20039;-83
2021/11/12 00:14:46;;;;;;;2.58;1.50;;;9.20;90.80;;;;;;5099337;28;20065;-83
2021/11/12 00:17:13;;;;;;;2.90;1.50;;;9.20;90.80;;;;;;5114504;28;20044;-83
2021/11/12 00:19:39;;;;;;;2.13;1.30;;;9.30;90.80;;;;;;5115941;28;20047;-83
2021/11/12 00:22:05;;;;;;;2.42;1.45;;;9.20;90.80;;;;;;5061642;28;20385;-83
2021/11/12 00:24:30;;;;;;;3.22;1.80;;;9.20;90.80;;;;;;5095426;28;20184;-83
2021/11/12 00:26:56;;;;;;;1.80;1.15;;;9.20;90.80;;;;;;5096023;28;20063;-83
2021/11/12 00:29:22;;;;;;;2.38;1.50;;;9.20;90.80;;;;;;5113492;28;20173;-83
2021/11/12 00:32:02;;;;;;;4.07;1.70;;;9.30;90.80;;;;;;5095406;28;20369;-83
2021/11/12 00:37:23;;;;;;;2.78;1.65;;;9.20;90.80;;;;;;5098200;28;20047;-83
2021/11/12 00:40:04;;;;;;;2.22;1.40;;;9.20;90.80;;;;;;5113797;28;20048;-83
2021/11/12 00:42:42;;;;;;;2.15;1.30;;;9.20;90.80;;;;;;5113900;28;20046;-83
2021/11/12 00:45:09;;;;;;;2.83;1.60;;;9.20;90.80;;;;;;5098819;28;20082;-83
2021/11/12 00:47:42;;;;;;;2.97;1.67;;;9.20;90.80;;;;;;5080340;28;20035;-83
2021/11/12 00:50:30;;;;;;;3.83;1.60;;;9.20;90.80;;;;;;5113037;28;20050;-83
2021/11/12 00:55:42;;;;;;;2.33;1.42;;;9.20;90.80;;;;;;5084745;28;20051;-83
2021/11/12 00:58:10;;;;;;;1.90;1.27;;;9.10;90.80;;;;;;5078277;28;20035;-83
2021/11/12 01:00:36;;;;;;;2.85;1.75;;;9.10;90.80;;;;;;5078580;28;20050;-83
2021/11/12 01:03:02;;;;;;;4.13;2.10;;;9.20;90.90;;;;;;5113432;28;20457;-83
2021/11/12 01:05:30;;;;;;;3.05;1.77;;;9.10;90.80;;;;;;5095263;28;20065;-83
2021/11/12 01:07:59;;;;;;;3.50;1.77;;;9.10;90.90;;;;;;5094703;28;20508;-82
2021/11/12 01:10:26;;;;;;;3.15;1.70;;;9.10;90.90;;;;;;5095010;28;20035;-83
2021/11/12 01:12:52;;;;;;;2.40;1.50;;;9.10;90.90;;;;;;5096628;28;20470;-83
2021/11/12 01:15:21;;;;;;;3.17;1.85;;;9.10;90.90;;;;;;5094074;28;20050;-83
2021/11/12 01:17:48;;;;;;;2.28;1.48;;;9.20;90.90;;;;;;5094387;28;20092;-83
2021/11/12 01:20:16;;;;;;;4.15;2.08;;;9.10;90.90;;;;;;5112470;28;20414;-83
2021/11/12 01:22:43;;;;;;;2.30;1.50;;;9.20;91.00;;;;;;5092869;28;20035;-83
2021/11/12 01:25:11;;;;;;;2.78;1.70;;;9.10;90.90;;;;;;5112769;28;20032;-83
2021/11/12 01:27:38;;;;;;;3.13;1.60;;;9.10;90.90;;;;;;5112867;28;20040;-83
2021/11/12 01:30:08;;;;;;;2.67;1.60;;;9.10;90.90;;;;;;5112528;28;20101;-83
2021/11/12 01:32:33;;;;;;;2.65;1.30;;;9.10;90.90;;;;;;5114489;28;20186;-83
2021/11/12 01:35:00;;;;;;;2.67;1.58;;;9.00;90.90;;;;;;5060747;28;20047;-83
2021/11/12 01:37:29;;;;;;;2.30;1.30;;;9.10;90.90;;;;;;5078118;28;20047;-83
2021/11/12 01:39:59;;;;;;;2.30;1.48;;;9.10;90.90;;;;;;5077798;28;20040;-83
2021/11/12 01:42:28;;;;;;;2.45;1.40;;;9.20;91.00;;;;;;5115008;28;20063;-82
2021/11/12 01:45:00;;;;;;;2.65;1.60;;;9.10;90.90;;;;;;5061978;28;20031;-83
2021/11/12 01:47:44;;;;;;;3.08;1.65;;;9.20;91.00;;;;;;5095419;28;20088;-83
2021/11/12 01:50:15;;;;;;;2.63;1.60;;;9.10;91.00;;;;;;5116988;28;20094;-83
2021/11/12 01:52:43;;;;;;;2.85;1.40;;;9.10;91.00;;;;;;5082255;28;20077;-83
2021/11/12 01:55:37;;;;;;;4.35;1.98;;;9.00;91.00;;;;;;5098181;28;20181;-82
2021/11/12 01:58:15;;;;;;;3.47;1.52;;;9.00;91.00;;;;;;5102269;28;20382;-83
2021/11/12 02:00:41;;;;;;;2.50;1.60;;;9.00;91.00;;;;;;5100150;28;20036;-83
2021/11/12 02:03:09;;;;;;;2.88;1.73;;;9.00;91.00;;;;;;5097702;28;20131;-83
2021/11/12 02:05:35;;;;;;;2.25;1.45;;;8.90;91.00;;;;;;5081130;28;20178;-83
2021/11/12 02:08:01;;;;;;;3.33;1.85;;;8.90;91.00;;;;;;5118087;28;20035;-83
2021/11/12 02:10:27;;;;;;;2.83;1.52;;;8.90;91.10;;;;;;5098084;28;20071;-83
2021/11/12 02:13:06;;;;;;;3.10;1.50;;;8.80;91.00;;;;;;5063845;28;20437;-83
2021/11/12 02:15:34;;;;;;;4.30;1.90;;;8.90;91.10;;;;;;5099482;28;20377;-83
2021/11/12 02:18:05;;;;;;;3.60;2.00;;;8.80;91.20;;;;;;5097114;28;20031;-83
2021/11/12 02:20:38;;;;;;;3.65;1.88;;;8.90;91.10;;;;;;5097572;28;20143;-83
2021/11/12 02:23:04;;;;;;;2.95;1.50;;;8.70;91.10;;;;;;5098389;28;20069;-83
2021/11/12 02:25:35;;;;;;;2.78;1.63;;;8.80;91.10;;;;;;5080475;28;20043;-83
2021/11/12 02:28:07;;;;;;;2.75;1.60;;;8.80;91.20;;;;;;5097814;28;20043;-83
2021/11/12 02:30:34;;;;;;;3.22;1.52;;;8.70;91.20;;;;;;5081359;28;20500;-82
2021/11/12 02:33:05;;;;;;;2.78;1.50;;;8.70;91.20;;;;;;5115004;28;20062;-83
2021/11/12 02:35:32;;;;;;;;;;;8.70;91.20;;;;;;5080497;28;20141;-83
2021/11/12 02:37:59;;;;;;;1.85;1.02;;;8.70;91.20;;;;;;5116998;28;20300;-83
2021/11/12 02:40:25;;;;;;;2.53;1.42;;;8.60;91.20;;;;;;5080407;28;20373;-82
2021/11/12 02:42:51;;;;;;;3.40;1.60;;;8.70;91.20;;;;;;5096849;28;20032;-83
2021/11/12 02:45:17;;;;;;;4.43;1.80;;;8.70;91.30;;;;;;5099220;28;20106;-83
2021/11/12 02:47:43;;;;;;;2.95;1.63;;;8.50;91.20;;;;;;5080121;28;20481;-83
2021/11/12 02:50:09;;;;;;;3.05;1.60;;;8.50;91.30;;;;;;5115111;28;20055;-82
2021/11/12 02:52:36;;;;;;;2.90;1.70;;;8.50;91.30;;;;;;5081846;28;20042;-82
2021/11/12 02:55:02;;;;;;;3.10;1.70;;;8.40;91.30;;;;;;5080066;28;20570;-82
2021/11/12 02:57:33;;;;;;;3.42;1.77;;;8.50;91.30;;;;;;5080133;28;20036;-82
2021/11/12 02:59:59;;;;;;;3.95;1.90;;;8.40;91.30;;;;;;5097057;28;20040;-83
2021/11/12 03:02:25;;;;;;;2.97;1.70;;;8.40;91.30;;;;;;5097103;28;20046;-83
2021/11/12 03:04:51;;;;;;;2.28;1.20;;;8.40;91.40;;;;;;5098181;28;20093;-83
2021/11/12 03:07:17;;;;;;;2.67;1.55;;;8.30;91.30;;;;;;5079661;28;20035;-83
2021/11/12 03:09:43;;;;;;;3.55;1.80;;;8.30;91.30;;;;;;5114598;28;20118;-83
2021/11/12 03:12:09;;;;;;;3.55;1.55;;;8.30;91.30;;;;;;5079740;28;20448;-83
2021/11/12 03:14:36;;;;;;;3.85;1.80;;;8.30;91.30;;;;;;5062649;28;20039;-83
2021/11/12 03:17:02;;;;;;;3.53;1.80;;;8.30;91.40;;;;;;5096352;28;20135;-82
2021/11/12 03:19:30;;;;;;;2.05;1.27;;;8.20;91.40;;;;;;5096084;28;20138;-83
2021/11/12 03:22:03;;;;;;;3.88;1.60;;;8.20;91.40;;;;;;5096544;28;20035;-83
2021/11/12 03:24:35;;;;;;;2.15;1.33;;;8.10;91.40;;;;;;5098600;28;20042;-83
2021/11/12 03:27:13;;;;;;;2.40;1.48;;;8.20;91.40;;;;;;5080489;28;20159;-83
2021/11/12 03:30:08;;;;;;;3.17;1.80;;;8.20;91.40;;;;;;5114304;28;20052;-83
2021/11/12 03:56:38;;;;;;;3.13;1.60;;;8.00;91.30;;;;;;5115597;28;20051;-83
2021/11/12 04:01:51;;;;;;;2.42;1.33;;;7.90;91.30;;;;;;5113714;28;20042;-83
2021/11/12 04:04:28;;;;;;;3.67;1.90;;;7.90;91.30;;;;;;5080514;28;20031;-83
2021/11/12 04:07:04;;;;;;;3.70;2.00;;;7.80;91.30;;;;;;5115410;28;20039;-83
2021/11/12 04:17:46;;;;;;;2.90;1.40;;;7.70;91.30;;;;;;5082710;28;20059;-83
2021/11/12 04:49:21;;;;;;;3.83;2.10;;;7.20;91.50;;;;;;5083201;28;20382;-83
2021/11/12 04:49:26;;;;;;;3.70;1.83;;;7.00;91.50;;;;;;5098157;28;20397;-83
2021/11/12 05:02:46;;;;;;;3.67;1.60;;;6.80;91.50;;;;;;5113840;28;20050;-83
2021/11/12 05:09:40;;;;;;;3.30;1.83;;;6.60;91.80;;;;;;5113152;28;20046;-84
2021/11/12 05:11:44;;;;;;;3.53;1.50;;;6.30;91.80;;;;;;5112761;28;20047;-83
2021/11/12 05:46:16;;;;;;;3.40;1.38;;;5.50;91.90;;;;;;5097203;28;20047;-83
2021/11/12 05:51:40;;;;;;;2.25;1.27;;;5.50;91.90;;;;;;5096283;28;20055;-82
2021/11/12 05:56:52;;;;;;;3.45;1.60;;;5.40;91.90;;;;;;5112220;28;20100;-83
2021/11/12 05:59:18;;;;;;;3.63;1.60;;;5.40;91.90;;;;;;5112157;28;20054;-82
2021/11/12 06:01:46;;;;;;;3.17;1.38;;;5.30;91.90;;;;;;5093960;28;20040;-82
2021/11/12 06:04:13;;;;;;;3.70;1.70;;;5.20;91.90;;;;;;5094170;28;20042;-82
2021/11/12 06:06:39;;;;;;;3.20;1.80;;;5.20;91.90;;;;;;5077606;28;20043;-83
2021/11/12 06:09:05;;;;;;;2.42;1.40;;;5.20;91.90;;;;;;5112414;28;20089;-83
2021/11/12 06:11:32;;;;;;;4.07;1.73;;;5.10;91.90;;;;;;5112753;28;20178;-83
2021/11/12 06:14:00;;;;;;;3.08;1.45;;;5.20;91.90;;;;;;5094047;28;20039;-83
2021/11/12 06:16:26;;;;;;;2.50;1.40;;;5.10;91.90;;;;;;5077183;28;20046;-83
2021/11/12 06:18:53;;;;;;;2.55;1.42;;;5.00;91.90;;;;;;5077078;28;20459;-83
2021/11/12 06:21:20;;;;;;;3.05;1.50;;;5.10;91.90;;;;;;5094104;28;20042;-83
2021/11/12 06:23:46;;;;;;;2.47;1.50;;;5.00;91.90;;;;;;5095976;28;20040;-83
2021/11/12 06:26:12;;;;;;;2.05;1.25;;;5.00;91.80;;;;;;5078486;28;20066;-81
2021/11/12 06:28:38;;;;;;;2.10;1.20;;;5.10;91.90;;;;;;5059840;28;20047;-81
2021/11/12 06:31:04;;;;;;;2.65;1.27;;;4.90;91.80;;;;;;5076900;28;20507;-81
2021/11/12 06:33:30;;;;;;;1.75;1.15;;;5.00;91.80;;;;;;5077157;28;20044;-80
2021/11/12 06:35:57;;;;;;;2.45;1.50;;;4.90;91.80;;;;;;5097161;28;20043;-81
2021/11/12 06:38:26;;;;;;;1.98;1.17;;;4.80;91.80;;;;;;5097110;28;20560;-81
2021/11/12 06:40:53;;;;;;;1.95;1.00;;;4.80;91.80;;;;;;5081113;28;20040;-81
2021/11/12 06:43:25;;;;;;;2.40;1.27;;;4.80;91.80;;;;;;5079983;28;20063;-80
2021/11/12 06:51:15;;;;;;;2.20;1.30;;;4.60;91.80;;;;;;5098982;28;20519;-80
2021/11/12 06:53:41;;;;;;;2.17;1.35;;;4.70;91.90;;;;;;5079774;28;20032;-81
2021/11/12 06:56:07;;;;;;;2.30;1.45;;;4.60;91.90;;;;;;5079674;28;20039;-80
2021/11/12 06:58:34;;;;;;;1.98;1.20;;;4.60;91.90;;;;;;5080217;28;20342;-80
2021/11/12 07:01:00;;;;;;;2.45;1.20;;;4.60;91.80;;;;;;5080996;28;20075;-80
2021/11/12 07:03:27;;;;;;;1.95;1.20;;;4.60;91.80;;;;;;5080117;28;20032;-81
2021/11/12 07:05:53;;;;;;;2.90;1.50;;;4.50;91.80;;;;;;5097101;28;20078;-80
2021/11/12 07:08:20;;;;;;;2.25;1.30;;;4.50;91.80;;;;;;5124416;28;20104;-80
2021/11/12 07:10:47;;;;;;;2.08;1.30;;;4.50;91.80;;;;;;5055199;28;20043;-80
2021/11/12 07:13:13;;;;;;;1.92;1.20;;;4.50;91.80;;;;;;5055849;28;20041;-81
2021/11/12 07:15:39;;;;;;;4.25;1.90;;;4.50;91.80;;;;;;5056252;28;20052;-80
2021/11/12 07:18:05;;;;;;;4.65;2.00;;;4.50;91.80;;;;;;5054445;28;20128;-80
2021/11/12 07:20:31;;;;;;;2.25;1.42;;;4.40;91.70;;;;;;5041197;28;20106;-80
2021/11/12 07:22:57;;;;;;;2.22;1.33;;;4.50;91.80;;;;;;5075500;28;20048;-80
2021/11/12 07:25:23;;;;;;;2.95;1.30;;;4.40;91.70;;;;;;5025400;28;20145;-81
2021/11/12 07:27:50;;;;;;;2.95;1.70;;;4.40;91.70;;;;;;5043200;28;20040;-81
2021/11/12 07:30:19;;;;;;;2.60;1.35;;;4.40;91.80;;;;;;5076389;28;20101;-81
2021/11/12 07:32:46;;;;;;;3.55;1.75;;;4.30;91.80;;;;;;5061615;28;20597;-81
2021/11/12 07:35:15;;;;;;;2.17;1.17;;;4.30;91.80;;;;;;5058837;28;20044;-82
2021/11/12 07:37:42;;;;;;;1.98;1.25;;;4.30;91.70;;;;;;5036573;28;20040;-76
2021/11/12 07:40:10;;;;;;;3.08;1.58;;;4.30;91.70;;;;;;5072309;28;20049;-76
2021/11/12 07:42:42;;;;;;;2.28;1.10;;;4.40;91.70;;;;;;5089941;28;20032;-76
2021/11/12 07:45:13;;;;;;;3.05;1.50;;;4.30;91.70;;;;;;5113554;28;20044;-76
2021/11/12 07:47:39;;;;;;;2.33;1.15;;;4.30;91.70;;;;;;5097344;28;20043;-76
2021/11/12 07:50:08;;;;;;;1.83;1.33;;;4.30;91.70;;;;;;5114252;28;20119;-76
2021/11/12 07:52:38;;;;;;;2.83;1.60;;;4.30;91.60;;;;;;5114126;28;20035;-76
2021/11/12 07:55:06;;;;;;;2.13;1.27;;;4.40;91.60;;;;;;5114562;28;20497;-76
2021/11/12 07:57:32;;;;;;;2.45;1.40;;;4.40;91.60;;;;;;5096706;28;20048;-76
2021/11/12 07:59:57;;;;;;;1.33;1.00;;;4.40;91.60;;;;;;5114019;28;20351;-77
2021/11/12 08:02:24;;;;;;;2.83;1.30;;;4.40;91.60;;;;;;5114549;28;20469;-76
2021/11/12 08:04:56;;;;;;;1.85;1.30;;;4.40;91.60;;;;;;5114319;28;20097;-76
2021/11/12 08:07:23;;;;;;;2.05;1.27;;;4.40;91.60;;;;;;5097217;28;20027;-76
2021/11/12 08:09:52;;;;;;;2.03;1.00;;;4.50;91.60;;;;;;5095389;28;20040;-76
2021/11/12 08:12:24;;;;;;;2.85;1.25;;;4.50;91.50;;;;;;5096096;28;20096;-75
2021/11/12 08:15:00;;;;;;;2.42;1.20;;;4.50;91.50;;;;;;5113706;28;20063;-75
2021/11/12 08:17:35;;;;;;;3.28;1.23;;;4.50;91.50;;;;;;5097374;28;20052;-75
2021/11/12 08:20:14;;;;;;;2.97;1.40;;;4.50;91.50;;;;;;5114054;28;20461;-75
2021/11/12 08:22:57;;;;;;;3.03;1.65;;;4.60;91.40;;;;;;5114512;28;20121;-78
2021/11/12 08:25:38;;;;;;;3.03;1.63;;;4.60;91.40;;;;;;5095740;28;20043;-78
2021/11/12 08:28:18;;;;;;;2.38;1.33;;;4.60;91.40;;;;;;5113993;28;20044;-78
2021/11/12 08:30:59;;;;;;;3.00;1.65;;;4.70;91.30;;;;;;5097538;28;20043;-78
2021/11/12 08:33:32;;;;;;;3.95;1.63;;;4.70;91.30;;;;;;5095888;28;20095;-76
2021/11/12 08:39:05;;;;;;;4.47;2.47;;;4.80;91.20;;;;;;4992907;28;20027;-83
2021/11/12 08:41:45;;;;;;;7.63;3.08;;;4.90;91.20;;;;;;5015057;28;20515;-82
2021/11/12 08:44:21;;;;;;;6.78;3.65;;;4.90;91.00;;;;;;5057634;28;20076;-82
2021/11/12 08:50:44;;;;;;;6.82;3.53;;;5.10;90.90;;;;;;4964210;28;21337;-79
2021/11/12 08:53:14;;;;;;;8.85;4.00;;;5.10;90.80;;;;;;4951126;28;20050;-79
2021/11/12 08:58:57;;;;;;;6.38;3.25;;;5.20;90.80;;;;;;4932578;29;20123;-80
2021/11/12 09:01:23;;;;;;;7.50;3.75;;;5.20;90.70;;;;;;4933462;29;20498;-82
2021/11/12 09:03:50;;;;;;;7.13;3.50;;;5.20;90.70;;;;;;4946127;28;20151;-82
2021/11/12 09:06:16;;;;;;;8.32;4.60;;;5.30;90.70;;;;;;4937583;28;20090;-81
2021/11/12 09:08:42;;;;;;;8.20;4.50;;;5.30;90.60;;;;;;4972176;28;20505;-84
2021/11/12 09:11:09;;;;;;;9.20;4.85;;;5.40;90.60;;;;;;4984241;28;20051;-82
2021/11/12 09:13:46;;;;;;;9.73;4.25;;;5.30;90.60;;;;;;4935478;28;20034;-83
2021/11/12 09:16:14;;;;;;;7.85;4.00;;;5.50;90.60;;;;;;4956894;28;20489;-83
2021/11/12 09:18:43;;;;;;;8.73;4.05;;;5.50;90.60;;;;;;4953568;28;20512;-82
2021/11/12 09:21:10;;;;;;;5.88;3.17;;;5.50;90.60;;;;;;4969786;28;20170;-82
2021/11/12 09:23:36;;;;;;;6.88;3.60;;;5.50;90.50;;;;;;4994716;28;20046;-84
2021/11/12 09:26:03;;;;;;;5.38;3.00;;;5.60;90.60;;;;;;4994170;28;20058;-83
2021/11/12 09:28:32;;;;;;;5.07;2.53;;;5.60;90.60;;;;;;5015250;28;20092;-79
2021/11/12 09:30:58;;;;;;;6.43;3.05;;;5.70;90.60;;;;;;5081972;28;20039;-79
2021/11/12 09:33:26;;;;;;;5.55;2.83;;;5.80;90.60;;;;;;5077761;28;20489;-83
2021/11/12 09:35:52;;;;;;;5.75;2.90;;;5.70;90.60;;;;;;5078223;28;20050;-81
2021/11/12 09:38:30;;;;;;;4.45;2.33;;;5.70;90.50;;;;;;5080552;28;20884;-82
2021/11/12 09:40:59;;;;;;;5.05;2.45;;;5.70;90.50;;;;;;4994099;28;20062;-81
2021/11/12 09:43:25;;;;;;;6.55;2.63;;;5.70;90.50;;;;;;4975647;28;20098;-80
2021/11/12 09:46:04;;;;;;;4.28;2.35;;;5.80;90.60;;;;;;4990456;28;20069;-83
2021/11/12 09:48:30;;;;;;;5.75;2.40;;;5.80;90.60;;;;;;4959500;28;20124;-79
2021/11/12 09:50:56;;;;;;;4.80;2.15;;;5.80;90.50;;;;;;4990408;28;20058;-79
2021/11/12 09:53:22;;;;;;;4.82;2.22;;;5.90;90.60;;;;;;4990649;28;20531;-80
2021/11/12 09:55:48;;;;;;;5.07;2.22;;;5.90;90.60;;;;;;4974283;28;20085;-80
2021/11/12 09:58:15;;;;;;;3.90;2.08;;;5.90;90.50;;;;;;4999539;28;20046;-82
2021/11/12 10:00:42;;;;;;;5.53;2.53;;;5.90;90.50;;;;;;4976532;28;20034;-80
2021/11/12 10:03:09;;;;;;;5.03;2.53;;;5.90;90.50;;;;;;4990760;28;20046;-81
2021/11/12 10:05:46;;;;;;;4.88;2.70;;;5.90;90.50;;;;;;4973944;28;20558;-81
2021/11/12 10:08:27;;;;;;;5.65;2.92;;;5.90;90.50;;;;;;4975550;28;20089;-83
2021/11/12 10:11:03;;;;;;;5.57;2.30;;;6.00;90.50;;;;;;4991856;28;20037;-85
2021/11/12 10:13:36;;;;;;;5.03;2.58;;;6.10;90.50;;;;;;5065541;28;20036;-84
2021/11/12 10:16:36;;;;;;;4.45;2.08;;;6.10;90.40;;;;;;5099314;28;20051;-86
2021/11/12 10:19:19;;;;;;;6.88;2.60;;;6.20;90.40;;;;;;5080395;28;20091;-83
2021/11/12 10:21:58;;;;;;;4.18;2.00;;;6.20;90.40;;;;;;5107239;28;20055;-88
2021/11/12 10:25:15;;;;;;;5.07;2.45;;;6.20;90.40;;;;;;5096500;28;20043;-89
2021/11/12 10:27:50;;;;;;;5.38;2.75;;;6.30;90.40;;;;;;5072206;28;20052;-79
2021/11/12 10:30:19;;;;;;;7.13;3.05;;;6.20;90.30;;;;;;5055906;28;20045;-79
2021/11/12 10:32:46;;;;;;;6.35;3.05;;;6.30;90.30;;;;;;5073114;28;20040;-79
2021/11/12 10:35:30;;;;;;;6.05;2.80;;;6.30;90.30;;;;;;5055557;28;20036;-79
2021/11/12 10:38:08;;;;;;;5.28;2.50;;;6.30;90.30;;;;;;5073760;28;20501;-80
2021/11/12 10:40:34;;;;;;;4.32;2.20;;;6.40;90.30;;;;;;5056966;28;20043;-80
2021/11/12 10:43:00;;;;;;;4.80;2.22;;;6.40;90.30;;;;;;5073205;28;20029;-79
2021/11/12 10:45:29;;;;;;;6.28;3.00;;;6.50;90.30;;;;;;5039211;28;20049;-80
2021/11/12 10:47:58;;;;;;;6.22;2.97;;;6.40;90.30;;;;;;5055959;28;20135;-80
2021/11/12 10:50:27;;;;;;;4.75;2.38;;;6.50;90.30;;;;;;5072554;28;20122;-82
2021/11/12 10:52:57;;;;;;;3.80;2.13;;;6.60;90.30;;;;;;5106389;28;20036;-82
2021/11/12 10:55:24;;;;;;;5.00;2.50;;;6.60;90.30;;;;;;5095916;28;20039;-82
2021/11/12 10:57:54;;;;;;;4.65;2.28;;;6.60;90.30;;;;;;5090377;28;20273;-82
2021/11/12 11:00:23;;;;;;;6.53;2.80;;;6.60;90.30;;;;;;5095338;28;20077;-82
2021/11/12 11:03:02;;;;;;;7.38;3.88;;;6.70;90.30;;;;;;5096898;28;20050;-82
2021/11/12 11:05:40;;;;;;;6.07;2.85;;;6.70;90.20;;;;;;5098612;28;20043;-82
2021/11/12 11:08:17;;;;;;;6.20;3.08;;;6.80;90.10;;;;;;5081371;28;20558;-82
2021/11/12 11:10:51;;;;;;;6.70;3.60;;;6.80;90.10;;;;;;5078709;28;20080;-84
2021/11/12 11:13:21;;;;;;;6.10;3.47;;;6.90;90.00;;;;;;5081101;28;20134;-81
2021/11/12 11:16:01;;;;;;;7.60;4.10;;;6.90;90.00;;;;;;5036721;28;20557;-84
2021/11/12 11:18:30;;;;;;;7.18;4.18;;;7.00;90.00;;;;;;5022174;28;20059;-79
2021/11/12 11:21:04;;;;;;;8.48;4.55;;;7.00;90.00;;;;;;5054050;28;20033;-79
2021/11/12 11:23:42;;;;;;;9.27;5.35;;;7.10;89.80;;;;;;5051863;28;20033;-81
2021/11/12 11:26:08;;;;;;;9.20;4.90;;;7.10;89.60;;;;;;5057939;28;20037;-82
2021/11/12 11:28:36;;;;;;;7.35;4.18;;;7.20;89.50;;;;;;5043893;28;20048;-82
2021/11/12 11:31:06;;;;;;;7.03;4.00;;;7.30;89.60;;;;;;5060100;28;20051;-82
2021/11/12 11:33:31;;;;;;;8.20;4.40;;;7.40;89.50;;;;;;5027559;28;20064;-81
2021/11/12 11:36:00;;;;;;;8.43;4.20;;;7.40;89.40;;;;;;5056204;28;20041;-82
2021/11/12 11:38:30;;;;;;;6.72;3.65;;;7.50;89.10;;;;;;5040069;28;20090;-82
2021/11/12 11:40:57;;;;;;;7.20;4.10;;;7.60;89.20;;;;;;5040625;28;20045;-82
2021/11/12 11:43:24;;;;;;;7.13;3.83;;;7.70;89.10;;;;;;5037861;28;20099;-81
2021/11/12 11:45:51;;;;;;;8.82;3.58;;;7.70;88.80;;;;;;5046218;28;20060;-82
2021/11/12 11:48:17;;;;;;;6.10;3.20;;;7.90;88.80;;;;;;5087304;28;20058;-81
2021/11/12 11:50:54;;;;;;;7.25;4.05;;;8.00;88.70;;;;;;5101453;28;20070;-81
2021/11/12 11:53:26;;;;;;;7.05;3.70;;;8.20;88.50;;;;;;5104657;28;20858;-81
2021/11/12 11:56:10;;;;;;;6.35;3.42;;;8.40;88.20;;;;;;5086990;28;20135;-78
2021/11/12 11:58:56;;;;;;;6.68;3.17;;;8.40;87.90;;;;;;5096220;28;20090;-81
2021/11/12 12:01:30;;;;;;;4.95;2.70;;;8.60;87.90;;;;;;5084814;28;20903;-80
2021/11/12 12:04:31;;;;;;;5.47;2.78;;;8.60;87.90;;;;;;5096489;28;20114;-82
2021/11/12 12:07:17;;;;;;;4.90;2.33;;;8.60;87.90;;;;;;5099478;28;20039;-86
2021/11/12 12:09:58;;;;;;;4.18;2.17;;;8.70;87.90;;;;;;5097280;28;20043;-81
2021/11/12 12:12:41;;;;;;;4.78;2.30;;;8.70;88.00;;;;;;5117084;28;20039;-81
2021/11/12 12:15:29;;;;;;;4.60;2.10;;;8.60;87.90;;;;;;5115796;28;20089;-81
2021/11/12 12:18:20;;;;;;;2.83;1.70;;;8.70;88.00;;;;;;5096846;28;20035;-82
2021/11/12 12:21:21;;;;;;;5.43;2.58;;;8.70;88.70;;;;;;5064464;28;20035;-80
2021/11/12 12:35:21;;;;;;;3.80;2.13;;;8.70;88.20;;;;;;5098339;28;20042;-83
2021/11/12 12:38:30;;;;;;;5.03;2.10;;;8.70;88.30;;;;;;5065985;28;20042;-83
2021/11/12 13:25:31;;;;;;;5.78;2.75;;;8.80;88.70;;;;;;5048850;28;20522;-80
2021/11/12 13:28:26;;;;;;;4.60;2.50;;;8.80;88.70;;;;;;5089071;28;20065;-78
2021/11/12 13:31:09;;;;;;;5.40;2.45;;;8.80;88.70;;;;;;5124440;28;20055;-78
2021/11/12 13:33:49;;;;;;;4.68;2.33;;;8.90;88.70;;;;;;5126469;28;20150;-79
2021/11/12 13:36:31;;;;;;;4.90;2.13;;;8.80;88.70;;;;;;5122803;28;20036;-79
2021/11/12 13:39:05;;;;;;;6.20;2.63;;;8.80;88.60;;;;;;5118383;28;20028;-79
2021/11/12 13:41:36;;;;;;;4.57;2.45;;;8.80;88.70;;;;;;5105197;28;20043;-80
2021/11/12 13:44:21;;;;;;;4.72;2.35;;;8.80;88.70;;;;;;5115738;28;20047;-81
2021/11/12 13:46:56;;;;;;;5.45;2.60;;;8.80;88.80;;;;;;5098907;28;20447;-78
2021/11/12 13:49:34;;;;;;;4.70;2.38;;;8.70;88.80;;;;;;5097885;28;20405;-79
2021/11/12 13:52:23;;;;;;;4.55;2.28;;;8.70;88.80;;;;;;5098538;28;20035;-83
2021/11/12 13:54:54;;;;;;;5.05;2.42;;;8.60;88.90;;;;;;5069264;28;20127;-81
2021/11/12 13:57:25;;;;;;;5.18;2.47;;;8.70;89.00;;;;;;5098131;28;20061;-82
2021/11/12 14:00:01;;;;;;;4.90;2.55;;;8.60;89.00;;;;;;5082717;28;20040;-80
2021/11/12 14:02:31;;;;;;;4.82;2.42;;;8.60;89.10;;;;;;5100942;28;20096;-83
2021/11/12 14:05:12;;;;;;;6.00;2.50;;;8.60;89.10;;;;;;5099186;28;20028;-81
2021/11/12 14:07:43;;;;;;;4.00;2.15;;;8.60;89.10;;;;;;5116143;28;20059;-82
2021/11/12 14:10:13;;;;;;;4.57;2.13;;;8.60;89.20;;;;;;5118557;28;20134;-78
2021/11/12 14:12:54;;;;;;;5.47;2.65;;;8.50;89.20;;;;;;5115827;28;20041;-80
2021/11/12 14:15:30;;;;;;;;;;;8.50;89.20;;;;;;5096604;28;20047;-81
2021/11/12 14:18:36;;;;;;;3.88;1.70;;;8.50;89.30;;;;;;5116518;28;19942;-85
2021/11/12 14:21:13;;;;;;;3.72;1.70;;;8.50;89.30;;;;;;5099942;28;20045;-80
2021/11/12 14:24:15;;;;;;;4.57;1.88;;;8.50;89.40;;;;;;5117980;28;20052;-83
2021/11/12 14:30:04;;;;;;;2.78;1.48;;;8.40;89.50;;;;;;5088130;28;20074;-82
2021/11/12 14:32:50;;;;;;;3.00;1.60;;;8.40;89.60;;;;;;5116417;28;20035;-82
2021/11/12 14:35:33;;;;;;;3.63;1.50;;;8.40;89.70;;;;;;5089034;28;20031;-79
2021/11/12 14:38:24;;;;;;;4.07;1.80;;;8.30;89.70;;;;;;5120477;28;20115;-83
2021/11/12 14:43:56;;;;;;;4.47;1.98;;;8.20;89.70;;;;;;4987187;28;20403;-82
2021/11/12 14:46:38;;;;;;;3.78;1.80;;;8.20;89.70;;;;;;5001797;28;20131;-81
2021/11/12 14:49:35;;;;;;;3.63;1.70;;;8.30;89.80;;;;;;4988135;28;20038;-85
2021/11/12 14:54:45;;;;;;;;;;;8.20;89.90;;;;;;4997333;28;20096;-80
2021/11/12 14:57:28;;;;;;;2.78;1.58;;;8.10;89.80;;;;;;5014567;28;19925;-81
2021/11/12 15:00:13;;;;;;;1.88;1.17;;;8.20;89.90;;;;;;4999072;28;20038;-80
2021/11/12 15:02:41;;;;;;;3.15;1.70;;;8.10;89.90;;;;;;4982555;28;20497;-79
2021/11/12 15:05:09;;;;;;;3.70;1.73;;;8.10;90.00;;;;;;5033232;28;20040;-79
2021/11/12 15:07:40;;;;;;;3.67;1.95;;;8.10;90.00;;;;;;5053268;28;20045;-81
2021/11/12 15:10:15;;;;;;;3.75;1.70;;;7.90;89.90;;;;;;5014033;28;20104;-82
2021/11/12 15:12:46;;;;;;;3.72;1.88;;;8.10;90.00;;;;;;5048984;28;20127;-83
2021/11/12 15:15:12;;;;;;;3.05;1.73;;;8.00;90.00;;;;;;5045932;28;20076;-82
2021/11/12 15:17:39;;;;;;;3.45;1.75;;;8.00;90.00;;;;;;5057014;28;20506;-81
2021/11/12 15:20:05;;;;;;;3.00;1.77;;;8.00;90.00;;;;;;5044250;28;20084;-79
2021/11/12 15:22:44;;;;;;;2.67;1.55;;;8.00;90.00;;;;;;5078962;28;20049;-80
2021/11/12 15:25:23;;;;;;;3.20;1.73;;;7.90;90.00;;;;;;5073844;28;20040;-76
2021/11/12 15:30:32;;;;;;;2.95;1.63;;;7.90;90.00;;;;;;5060389;28;20084;-82
2021/11/12 15:33:03;;;;;;;3.83;1.75;;;7.90;90.00;;;;;;5023960;28;20055;-82
2021/11/12 15:35:30;;;;;;;3.17;1.77;;;7.90;90.00;;;;;;5025118;28;20414;-81
2021/11/12 15:38:05;;;;;;;2.80;1.65;;;7.90;90.10;;;;;;5046901;28;20447;-80
2021/11/12 15:40:35;;;;;;;3.22;1.60;;;7.80;90.10;;;;;;5070796;28;20044;-82
2021/11/12 15:43:23;;;;;;;3.65;1.98;;;7.80;90.10;;;;;;5098156;28;20043;-82
2021/11/12 15:45:58;;;;;;;3.42;1.95;;;7.80;90.10;;;;;;5117768;28;20054;-80
2021/11/12 15:48:34;;;;;;;3.53;1.70;;;7.80;90.10;;;;;;5082884;28;20069;-82
2021/11/12 15:53:56;;;;;;;2.20;1.45;;;7.70;90.10;;;;;;5104268;28;20047;-81
2021/11/12 15:56:45;;;;;;;2.58;1.40;;;7.70;90.10;;;;;;5114294;28;20119;-82
2021/11/12 16:02:38;;;;;;;2.83;1.50;;;7.60;90.20;;;;;;5087662;28;20100;-82
2021/11/12 16:05:24;;;;;;;2.38;1.17;;;7.60;90.20;;;;;;5036826;28;20578;-79
2021/11/12 16:07:59;;;;;;;2.00;1.40;;;7.60;90.20;;;;;;5036448;28;20049;-79
2021/11/12 16:13:18;;;;;;;2.83;1.58;;;7.50;90.20;;;;;;5024708;28;20037;-81
2021/11/12 16:16:16;;;;;;;2.17;1.25;;;7.50;90.20;;;;;;5035878;28;20049;-77
2021/11/12 16:18:40;;;;;;;3.13;1.45;;;7.50;90.20;;;;;;5036787;28;20044;-77
2021/11/12 16:24:00;;;;;;;2.33;1.30;;;7.50;90.20;;;;;;5050867;28;20075;-77
2021/11/12 16:26:29;;;;;;;2.65;1.30;;;7.50;90.20;;;;;;5034034;28;20048;-77
2021/11/12 16:29:13;;;;;;;4.03;1.60;;;7.40;90.20;;;;;;5076716;28;20043;-76
2021/11/12 16:31:41;;;;;;;2.72;1.55;;;7.40;90.20;;;;;;5080662;28;20515;-76
2021/11/12 16:34:13;;;;;;;1.65;1.00;;;7.40;90.30;;;;;;5113432;28;20040;-76
2021/11/12 16:36:44;;;;;;;2.97;1.63;;;7.40;90.30;;;;;;5095931;28;20381;-76
2021/11/12 16:39:10;;;;;;;2.00;1.23;;;7.40;90.30;;;;;;5095367;28;20027;-76
2021/11/12 16:41:42;;;;;;;2.90;1.58;;;7.30;90.30;;;;;;5113473;28;20058;-76
2021/11/12 16:44:21;;;;;;;2.03;1.17;;;7.30;90.30;;;;;;5095342;28;20066;-77
2021/11/12 16:47:03;;;;;;;2.08;1.17;;;7.30;90.30;;;;;;5097158;28;20066;-75
2021/11/12 16:52:28;;;;;;;2.75;1.42;;;7.20;90.30;;;;;;5113211;28;20046;-76
2021/11/12 16:55:10;;;;;;;2.38;1.30;;;7.20;90.30;;;;;;5098085;28;20063;-76
2021/11/12 16:57:49;;;;;;;3.30;1.58;;;7.20;90.30;;;;;;5113584;28;20036;-77
2021/11/12 17:03:07;;;;;;;1.98;1.17;;;7.20;90.40;;;;;;5113003;28;20051;-76
2021/11/12 17:05:42;;;;;;;2.05;1.33;;;7.20;90.30;;;;;;5094720;28;20508;-76
2021/11/12 17:08:19;;;;;;;3.30;1.38;;;7.20;90.30;;;;;;5113361;28;20074;-76
2021/11/12 17:11:01;;;;;;;3.17;1.50;;;7.20;90.50;;;;;;5081506;28;20049;-76
2021/11/12 17:13:42;;;;;;;2.78;1.50;;;7.20;90.30;;;;;;5113152;28;20054;-76
2021/11/12 17:16:31;;;;;;;2.72;1.33;;;7.20;90.30;;;;;;5112926;28;20110;-76